Tiempo atmosférico en la estación meteorológica de Cuéllar, Segovia (795 m.)



Fecha
DESCASC
Temp. máxima en grados centígrados (hora)
DESCASC
Temp. mínima en grados centígrados (hora)
DESCASC
Temp. media en grados centígrados
DESCASC
Racha de viento máxima en m/sg (hora)
DESCASC
Velocidad máxima media en intervalos de 10 minutos(hora)
DESCASC
Precipitaciones diarias en mm
DESCASC
Precipitaciones de 00:00 a 06:00 en mm
DESCASC
Precipitaciones de 06:00 a 12:00 en mm
DESCASC
Precipitaciones de 12:00 a 18:00 en mm
DESCASC
Precipitaciones de 18:00 a 24:00 en mm
DESCASC
18-04-2019 13.5 (00:30) 7.8 (06:40) 10.7 6.67 (00:30) 4.72 (13:40) 5.8 1.8 1 0.8 2.2
17-04-2019 21.8 (13:40) 3 (02:30) 12.4 16.11 (14:00) 8.06 (14:00) 1.8 0 0 0 1.8
16-04-2019 21.1 (18:20) -1.5 (-00:0) 9.8 7.78 (15:50) 3.61 (16:00) 0 0 0 0 0
15-04-2019 22.1 (14:50) 3.9 (00:00) 13 16.67 (14:40) 9.72 (15:00) 0 0 0 0 0
14-04-2019 22 (18:00) 3 (00:00) 12.5 6.11 (13:10) 3.06 (13:10) 0 0 0 0 0
13-04-2019 20.6 (18:00) -4.7 (-00:0) 8 6.39 (16:00) 3.33 (16:10) 0 0 0 0 0
12-04-2019 17.4 (19:10) -3.6 (-00:0) 6.9 6.39 (00:10) 4.44 (00:50) 0 0 0 0 0
11-04-2019 13.8 (17:20) -1.9 (-00:0) 6 6.94 (16:50) 4.72 (01:10) 0 0 0 0 0
10-04-2019 12.6 (19:10) 4.1 (00:00) 8.4 8.89 (15:30) 6.39 (15:30) 2.8 0 1.4 1.4 0
09-04-2019 11.8 (18:00) -1 (-00:0) 5.4 12.5 (18:50) 6.39 (16:50) 4.4 0 1.8 2.6 0
08-04-2019 14.9 (17:40) 4.8 (00:00) 9.8 10.56 (16:00) 5.28 (16:00) 1.6 0.6 1 0 0
07-04-2019 11.4 (15:20) 2.7 (00:00) 7 10 (17:40) 5.28 (17:40) 5 0.6 0 0 4.4
06-04-2019 9.1 (15:50) 2 (00:00) 5.6 17.78 (15:30) 8.06 (16:50) 1.2 0 0.2 1 0
05-04-2019 6.5 (16:50) 0.5 (00:00) 3.5 9.72 (17:10) 5.28 (17:10) 10.8 0.8 3 6 1
04-04-2019 12.4 (16:40) -9 (-00:0) 1.7 10 (20:20) 6.11 (20:20) 0 0 0 0 0
03-04-2019 12.5 (16:00) -2.3 (07:00) 5.1 11.67 (17:50) 7.78 (17:30) 0 0 0 0 0
02-04-2019 18.7 (17:10) -0.8 (-00:0) 9 9.17 (16:40) 5 (18:40) 0 0 0 0 0
01-04-2019 19.3 (17:40) 0.1 (00:00) 9.7 6.94 (00:10) 4.44 (00:10) 0 0 0 0 0
31-03-2019 19.2 (13:40) -1.6 (-00:0) 8.8 11.11 (14:50) 8.33 (14:50) 0.2 0 0 0.2 0
30-03-2019 20.5 (18:10) -4.8 (-00:0) 7.8 6.94 (13:50) 3.89 (21:10) 0 0 0 0 0
29-03-2019 19.7 (15:00) -4.9 (-00:0) 7.4 6.94 (19:10) 4.44 (18:30) 0 0 0 0 0
28-03-2019 20.5 (16:20) -3.1 (-00:0) 8.7 10.56 (03:20) 8.06 (01:30) 0 0 0 0 0
27-03-2019 20.8 (16:30) -0.2 (00:00) 10.3 12.5 (19:50) 9.72 (19:50) 0 0 0 0 0
26-03-2019 19.9 (15:50) -0.3 (00:00) 9.8 13.89 (15:30) 10 (14:30) 0 0 0 0 0
25-03-2019 17.1 (15:00) 3.8 (00:00) 10.5 12.78 (19:50) 10 (22:50) 0 0 0 0 0
24-03-2019 22.7 (16:40) -0.3 (00:00) 11.2 10.56 (21:50) 8.33 (22:00) 0 0 0 0 0
23-03-2019 22.1 (16:20) -4 (-00:0) 9.1 10 (13:50) 6.11 (13:40) 0 0 0 0 0
22-03-2019 19.5 (16:50) -6 (-00:0) 6.8 7.5 (15:30) 5 (20:20) 0 0 0 0 0
21-03-2019 17.4 (18:20) -5.5 (-00:0) 5.9 7.22 (00:10) 5.83 (01:10) 0 0 0 0 0

Gráficas

Temp. máximas Temp. mínimas Temp. medias Precipitaciones Rachas de viento máximas Velocidades máximas media en intervalos de 10 minutos

Datos horarios

Fecha y hora oficial Temperatura (ºC) Velocidad del viento (km/h) Dirección del viento Racha (km/h) Dirección de racha Precipitación (mm) Presión (hPa) Tendencia (hPa) Humedad (%)
2019-04-19 23:00:00 11.6 12 Nordeste 24 Nordeste 0 -- -- 71
2019-04-19 22:00:00 11.9 13 Nordeste 40 Nordeste 0 -- -- 72
2019-04-19 21:00:00 12.5 21 Nordeste 42 Nordeste 0 -- -- 71
2019-04-19 20:00:00 13.2 26 Nordeste 44 Nordeste 0 -- -- 71
2019-04-19 19:00:00 13 30 Nordeste 42 Nordeste 0 -- -- 76
2019-04-19 18:00:00 10.9 25 Nordeste 37 Nordeste 0 -- -- 86
2019-04-19 17:00:00 10.6 18 Nordeste 33 Nordeste 0 -- -- 88
2019-04-19 16:00:00 10.8 26 Nordeste 36 Nordeste 0 -- -- 82
2019-04-19 15:00:00 12.1 21 Nordeste 28 Nordeste 0 -- -- 76
2019-04-19 14:00:00 12.4 14 Nordeste 22 Nordeste 0 -- -- 74
2019-04-19 13:00:00 12.2 9 Este 21 Nordeste 0 -- -- 73
2019-04-19 12:00:00 12.4 13 Este 29 Nordeste 0 -- -- 69
2019-04-19 11:00:00 11.4 17 Este 27 Este 0 -- -- 77
2019-04-19 10:00:00 9 14 Nordeste 23 Nordeste 0 -- -- 88
2019-04-19 09:00:00 7.3 10 Nordeste 14 Nordeste 0 -- -- 94
2019-04-19 08:00:00 5.4 7 Nordeste 14 Nordeste 0 -- -- 97
2019-04-19 07:00:00 5.7 5 Nordeste 12 Nordeste 0 -- -- 97
2019-04-19 06:00:00 6.8 5 Nordeste 10 Nordeste 0 -- -- 98
2019-04-19 05:00:00 7.2 9 Este 13 Este 0 -- -- 99
2019-04-19 04:00:00 6.5 6 Este 9 Nordeste 0.2 -- -- 98
2019-04-19 03:00:00 7.7 9 Este 13 Este 0.2 -- -- 98
2019-04-19 02:00:00 7.6 9 Nordeste 12 Nordeste 0.2 -- -- 98
2019-04-19 01:00:00 7.8 6 Nordeste 9 Nordeste 1.6 -- -- 97
2019-04-19 00:00:00 8.1 7 Nordeste 15 Nordeste 1.6 -- -- 96
2019-04-18 23:00:00 8.7 12 Nordeste 21 Nordeste 0.4 -- -- 93
2019-04-18 22:00:00 9.3 13 Nordeste 22 Nordeste 0.2 -- -- 90
2019-04-18 21:00:00 10.3 13 Nordeste 19 Nordeste 0 -- -- 85
2019-04-18 20:00:00 10.5 10 Norte 16 Norte 0 -- -- 87
2019-04-18 19:00:00 12.1 9 Norte 15 Norte 0 -- -- 74
2019-04-18 18:00:00 11.7 10 Norte 18 Norte 0 -- -- 75
2019-04-18 17:00:00 11.9 10 Norte 17 Norte 0 -- -- 74
2019-04-18 16:00:00 11.7 10 Nordeste 21 Nordeste 0 -- -- 73
2019-04-18 15:00:00 10.9 10 Este 19 Este 0 -- -- 78
2019-04-18 14:00:00 10.5 15 Este 23 Este 0.2 -- -- 79
2019-04-18 13:00:00 9.5 13 Este 18 Este 0.6 -- -- 91
2019-04-18 12:00:00 9.9 13 Este 18 Este 0 -- -- 85
2019-04-18 11:00:00 9.4 10 Este 14 Este 0.2 -- -- 93
2019-04-18 10:00:00 8.6 9 Este 12 Este 0.2 -- -- 95
2019-04-18 09:00:00 8.2 5 Este 13 Nordeste 0 -- -- 97
2019-04-18 08:00:00 7.8 5 Nordeste 10 Nordeste 0.4 -- -- 97
2019-04-18 07:00:00 7.8 4 Este 8 Nordeste 0.2 -- -- 96
2019-04-18 06:00:00 8.1 2 Noroeste 6 Sudoeste 0.4 -- -- 95
2019-04-18 05:00:00 8.5 2 Sudoeste 12 Sur 0.8 -- -- 93
2019-04-18 04:00:00 9 4 Sudoeste 15 Sur 0.4 -- -- 91
2019-04-18 03:00:00 9.5 5 Sudoeste 19 Oeste 0.2 -- -- 87
2019-04-18 02:00:00 10 4 Oeste 13 Sudoeste 0 -- -- 83
2019-04-18 01:00:00 11.8 10 Oeste 24 Sudoeste 0 -- -- 78
2019-04-18 00:00:00 13.3 9 Sudeste 20 Sudeste 0 -- -- 72
2019-04-17 23:00:00 12.3 14 Sudeste 20 Sudeste 0 -- -- 83
2019-04-17 22:00:00 12.4 10 Sudeste 15 Sudeste 0 -- -- 85
2019-04-17 21:00:00 11.8 8 Sudeste 18 Sudeste 0.2 -- -- 93
2019-04-17 20:00:00 13.4 12 Sur 26 Sudoeste 1.6 -- -- 83
2019-04-17 19:00:00 19.4 3 Sudoeste 9 Sur 0 -- -- 47
2019-04-17 18:00:00 19.3 4 Sur 15 Sudoeste 0 -- -- 46
2019-04-17 17:00:00 18.4 10 Sudoeste 25 Sur 0 -- -- 44
2019-04-17 16:00:00 18.7 16 Sur 30 Sur 0 -- -- 41
2019-04-17 15:00:00 19.3 21 Sur 43 Sur 0 -- -- 40
2019-04-17 14:00:00 19.8 29 Sur 58 Sur 0 -- -- 34
2019-04-17 13:00:00 19.7 10 Sudeste 25 Sur 0 -- -- 46
2019-04-17 12:00:00 16.5 3 Este 10 Nordeste 0 -- -- 55
2019-04-17 11:00:00 12.3 4 Este 9 Nordeste 0 -- -- 81
2019-04-17 10:00:00 7.7 2 Sudeste 9 Sudeste 0 -- -- 93
2019-04-17 09:00:00 5.5 4 Nordeste 12 Nordeste 0 -- -- 93
2019-04-17 08:00:00 4.6 3 Este 12 Este 0 -- -- 94
2019-04-17 07:00:00 5.4 3 Este 10 Sudeste 0 -- -- 90
2019-04-17 06:00:00 5 0 Calma 10 Sudeste 0 -- -- 90
2019-04-17 05:00:00 4.7 5 Este 10 Este 0 -- -- 91
2019-04-17 04:00:00 4.3 2 Este 11 Este 0 -- -- 85
2019-04-17 03:00:00 3.6 10 Este 13 Este 0 -- -- 86
2019-04-17 02:00:00 4 8 Este 13 Este 0 -- -- 86
2019-04-17 01:00:00 5 5 Este 10 Este 0 -- -- 84
2019-04-17 00:00:00 5.7 5 Este 10 Este 0 -- -- 82
2019-04-16 23:00:00 7.4 3 Este 8 Nordeste 0 -- -- 79
2019-04-16 22:00:00 9.4 2 Sudeste 6 Sur 0 -- -- 67
2019-04-16 21:00:00 14.5 2 Sudoeste 11 Sur 0 -- -- 51
2019-04-16 20:00:00 18.9 5 Sur 16 Sur 0 -- -- 38
2019-04-16 19:00:00 20.6 10 Sudeste 22 Sudeste 0 -- -- 36
2019-04-16 18:00:00 20.7 10 Sudeste 21 Sur 0 -- -- 35
2019-04-16 17:00:00 20.7 11 Sur 27 Sudeste 0 -- -- 35
2019-04-16 16:00:00 19 13 Sur 28 Sudeste 0 -- -- 33
2019-04-16 15:00:00 19.4 6 Nordeste 15 Este 0 -- -- 31
2019-04-16 14:00:00 17.5 5 Norte 16 Norte 0 -- -- 46
2019-04-16 13:00:00 16.4 8 Nordeste 14 Nordeste 0 -- -- 51
2019-04-16 12:00:00 15.1 5 Nordeste 10 Nordeste 0 -- -- 57
2019-04-16 11:00:00 12.9 4 Este 9 Este 0 -- -- 70
2019-04-16 10:00:00 9.3 3 Este 9 Este 0 -- -- 94
2019-04-16 09:00:00 3.3 2 Este 4 Este 0 -- -- 96
2019-04-16 08:00:00 -1.5 0 Calma 4 Este 0 -- -- 100
2019-04-16 07:00:00 -0.4 0 Calma 5 Sudeste 0 -- -- 100
2019-04-16 06:00:00 -0.5 0 Calma 3 Sudeste 0 -- -- 99
2019-04-16 05:00:00 0.3 3 Sudeste 3 Sudeste 0 -- -- 99
2019-04-16 04:00:00 -0.4 2 Sudeste 2 Sudeste 0 -- -- 98
2019-04-16 03:00:00 0.9 0 Calma 3 Nordeste 0 -- -- 98
2019-04-16 02:00:00 1.8 0 Calma 3 Sur 0 -- -- 97
2019-04-16 01:00:00 4.6 2 Norte 4 Sudoeste 0 -- -- 96
2019-04-16 00:00:00 6.1 0 Calma 5 Nordeste 0 -- -- 93
2019-04-15 23:00:00 7.4 0 Calma 11 Sur 0 -- -- 85
2019-04-15 22:00:00 9.6 4 Sur 17 Sudoeste 0 -- -- 83
2019-04-15 21:00:00 11 8 Oeste 36 Oeste 0 -- -- 73
2019-04-15 20:00:00 12.9 21 Oeste 44 Oeste 0 -- -- 55
2019-04-15 19:00:00 14.9 26 Oeste 51 Oeste 0 -- -- 53
2019-04-15 18:00:00 17.2 28 Oeste 53 Oeste 0 -- -- 52
2019-04-15 17:00:00 19.3 24 Oeste 47 Oeste 0 -- -- 41
2019-04-15 16:00:00 21.1 19 Sudoeste 50 Sur 0 -- -- 54
2019-04-15 15:00:00 22 35 Sur 60 Sur 0 -- -- 42
2019-04-15 14:00:00 20.8 29 Sur 47 Sur 0 -- -- 54
2019-04-15 13:00:00 19 26 Sur 43 Sur 0 -- -- 59
2019-04-15 12:00:00 18.4 13 Sur 24 Sudoeste 0 -- -- 64
2019-04-15 11:00:00 16 3 Sudeste 6 Sudeste 0 -- -- 75
2019-04-15 10:00:00 12.1 6 Este 9 Este 0 -- -- 86
2019-04-15 09:00:00 9.5 5 Este 8 Este 0 -- -- 97
2019-04-15 08:00:00 5.2 4 Nordeste 7 Sudeste 0 -- -- 100
2019-04-15 07:00:00 4.1 5 Sudeste 8 Sudeste 0 -- -- 99
2019-04-15 06:00:00 5.3 0 Calma 3 Sudoeste 0 -- -- 99
2019-04-15 05:00:00 4.7 0 Calma 5 Este 0 -- -- 98
2019-04-15 04:00:00 5.8 5 Este 7 Este 0 -- -- 97
2019-04-15 03:00:00 7 4 Este 10 Nordeste 0 -- -- 96
2019-04-15 02:00:00 6.9 5 Este 7 Este 0 -- -- 96
2019-04-15 01:00:00 7.7 0 Calma 6 Este 0 -- -- 94
2019-04-15 00:00:00 7.7 4 Este 8 Este 0 -- -- 93
2019-04-14 23:00:00 9.2 3 Este 6 Nordeste 0 -- -- 93
2019-04-14 22:00:00 10.8 4 Nordeste 5 Este 0 -- -- 84
2019-04-14 21:00:00 14.3 2 Este 10 Nordeste 0 -- -- 73
2019-04-14 20:00:00 20.4 2 Este 10 Oeste 0 -- -- 51
2019-04-14 19:00:00 20.9 4 Sudoeste 15 Sudoeste 0 -- -- 48
2019-04-14 18:00:00 22 5 Noroeste 19 Oeste 0 -- -- 45
2019-04-14 17:00:00 20.8 6 Noroeste 15 Noroeste 0 -- -- 49
2019-04-14 16:00:00 19.2 5 Noroeste 17 Sudoeste 0 -- -- 55
2019-04-14 15:00:00 18.8 7 Oeste 21 Sur 0 -- -- 52
2019-04-14 14:00:00 17.8 4 Noroeste 22 Sudoeste 0 -- -- 59
2019-04-14 13:00:00 16.5 7 Sur 15 Sur 0 -- -- 65
2019-04-14 12:00:00 13.6 9 Sudoeste 15 Sudoeste 0 -- -- 80
2019-04-14 11:00:00 12.8 9 Oeste 18 Oeste 0 -- -- 84
2019-04-14 10:00:00 11.7 8 Oeste 17 Oeste 0 -- -- 87
2019-04-14 09:00:00 9.6 0 Calma 3 Oeste 0 -- -- 90
2019-04-14 08:00:00 7.3 0 Calma 2 Nordeste 0 -- -- 92
2019-04-14 07:00:00 6.4 0 Calma 3 Oeste 0 -- -- 92
2019-04-14 06:00:00 6.3 2 Oeste 4 Oeste 0 -- -- 89
2019-04-14 05:00:00 5.4 0 Calma 3 Sudeste 0 -- -- 91
2019-04-14 04:00:00 4.3 0 Calma 4 Este 0 -- -- 90
2019-04-14 03:00:00 3.5 3 Este 4 Este 0 -- -- 90
2019-04-14 02:00:00 3.2 2 Este 3 Este 0 -- -- 89
2019-04-14 01:00:00 3.5 0 Calma 3 Sudeste 0 -- -- 88
2019-04-14 00:00:00 4 3 Este 5 Sudeste 0 -- -- 85
2019-04-13 23:00:00 6.1 0 Calma 3 Noroeste 0 -- -- 80
2019-04-13 22:00:00 8.4 0 Calma 4 Sur 0 -- -- 69
2019-04-13 21:00:00 14.2 2 Noroeste 14 Oeste 0 -- -- 45
2019-04-13 20:00:00 19.2 9 Oeste 18 Noroeste 0 -- -- 28
2019-04-13 19:00:00 20.5 7 Noroeste 16 Sudoeste 0 -- -- 24
2019-04-13 18:00:00 20.6 7 Noroeste 18 Noroeste 0 -- -- 26
2019-04-13 17:00:00 20.3 12 Noroeste 21 Noroeste 0 -- -- 23
2019-04-13 16:00:00 18.8 12 Noroeste 23 Noroeste 0 -- -- 21
2019-04-13 15:00:00 18 9 Noroeste 18 Noroeste 0 -- -- 29
2019-04-13 14:00:00 18 6 Norte 13 Norte 0 -- -- 30
2019-04-13 13:00:00 17.5 4 Norte 10 Norte 0 -- -- 35
2019-04-13 12:00:00 16.2 3 Norte 10 Sudoeste 0 -- -- 40
2019-04-13 11:00:00 11.6 4 Oeste 9 Oeste 0 -- -- 52
2019-04-13 10:00:00 7.4 3 Este 9 Este 0 -- -- 66
2019-04-13 09:00:00 1.6 4 Este 6 Este 0 -- -- 85
2019-04-13 08:00:00 -3.7 4 Este 5 Este 0 -- -- 96
2019-04-13 07:00:00 -4.2 3 Este 5 Este 0 -- -- 96
2019-04-13 06:00:00 -4.2 5 Este 7 Este 0 -- -- 95
2019-04-13 05:00:00 -4.3 3 Sudeste 7 Este 0 -- -- 95
2019-04-13 04:00:00 -3.5 3 Este 6 Este 0 -- -- 96
2019-04-13 03:00:00 -2.4 3 Este 8 Este 0 -- -- 95
2019-04-13 02:00:00 -1.7 4 Sudeste 8 Este 0 -- -- 94
2019-04-13 01:00:00 -0.5 4 Este 8 Este 0 -- -- 91
2019-04-13 00:00:00 0.7 4 Sudeste 13 Este 0 -- -- 92
2019-04-12 23:00:00 1.7 0 Calma 4 Sur 0 -- -- 88
2019-04-12 22:00:00 4.8 2 Sur 5 Nordeste 0 -- -- 76
2019-04-12 21:00:00 7.8 3 Noroeste 10 Norte 0 -- -- 67
2019-04-12 20:00:00 15.7 7 Norte 17 Norte 0 -- -- 38
2019-04-12 19:00:00 16.9 7 Norte 17 Norte 0 -- -- 35
2019-04-12 18:00:00 16.3 4 Este 19 Noroeste 0 -- -- 38
2019-04-12 17:00:00 17.2 4 Norte 18 Noroeste 0 -- -- 37
2019-04-12 16:00:00 15.2 11 Noroeste 22 Noroeste 0 -- -- 41
2019-04-12 15:00:00 14.1 8 Noroeste 23 Norte 0 -- -- 45
2019-04-12 14:00:00 13.2 11 Noroeste 22 Norte 0 -- -- 47
2019-04-12 13:00:00 12.1 11 Noroeste 21 Norte 0 -- -- 50
2019-04-12 12:00:00 11 9 Norte 15 Noroeste 0 -- -- 56
2019-04-12 11:00:00 10.2 12 Nordeste 17 Norte 0 -- -- 62
2019-04-12 10:00:00 7.2 3 Sudeste 7 Sudeste 0 -- -- 79
2019-04-12 09:00:00 3.4 0 Calma 5 Sudeste 0 -- -- 89
2019-04-12 08:00:00 -3.2 0 Calma 5 Sudeste 0 -- -- 99
2019-04-12 07:00:00 -3.3 2 Nordeste 3 Este 0 -- -- 99
2019-04-12 06:00:00 -2.3 0 Calma 4 Nordeste 0 -- -- 98
2019-04-12 05:00:00 -0.9 4 Nordeste 6 Nordeste 0 -- -- 98
2019-04-12 04:00:00 0.4 3 Nordeste 10 Este 0 -- -- 95
2019-04-12 03:00:00 1.9 9 Este 13 Este 0 -- -- 93
2019-04-12 02:00:00 3.8 10 Nordeste 23 Nordeste 0 -- -- 90
2019-04-12 01:00:00 4.5 14 Nordeste 23 Nordeste 0 -- -- 86
2019-04-12 00:00:00 5 15 Nordeste 21 Nordeste 0 -- -- 84
2019-04-11 23:00:00 5.6 12 Nordeste 24 Nordeste 0 -- -- 83
2019-04-11 22:00:00 7.5 16 Nordeste 22 Nordeste 0 -- -- 77
2019-04-11 21:00:00 6.1 5 Norte 9 Norte 0 -- -- 78
2019-04-11 20:00:00 10.2 7 Norte 12 Norte 0 -- -- 60
2019-04-11 19:00:00 12.3 10 Norte 16 Norte 0 -- -- 49
2019-04-11 18:00:00 12.7 6 Norte 20 Norte 0 -- -- 45
2019-04-11 17:00:00 13.3 6 Oeste 25 Oeste 0 -- -- 43
2019-04-11 16:00:00 12.2 6 Noroeste 19 Noroeste 0 -- -- 47
2019-04-11 15:00:00 11.7 9 Oeste 21 Oeste 0 -- -- 52
2019-04-11 14:00:00 11.5 9 Oeste 17 Oeste 0 -- -- 55
2019-04-11 13:00:00 10.5 7 Oeste 16 Sudoeste 0 -- -- 58
2019-04-11 12:00:00 9.9 8 Noroeste 13 Noroeste 0 -- -- 62
2019-04-11 11:00:00 9.5 6 Este 14 Este 0 -- -- 67
2019-04-11 10:00:00 8.2 0 Calma 4 Sur 0 -- -- 73
2019-04-11 09:00:00 2.4 2 Este 3 Este 0 -- -- 91
2019-04-11 08:00:00 -1.8 0 Calma 5 Nordeste 0 -- -- 98
2019-04-11 07:00:00 -1.4 0 Calma 4 Sudeste 0 -- -- 98
2019-04-11 06:00:00 0.6 4 Nordeste 11 Norte 0 -- -- 96
2019-04-11 05:00:00 0.8 3 Norte 15 Norte 0 -- -- 94
2019-04-11 04:00:00 2.3 7 Norte 19 Norte 0 -- -- 93
2019-04-11 03:00:00 2.7 13 Norte 20 Norte 0 -- -- 92
2019-04-11 02:00:00 3 13 Norte 24 Norte 0 -- -- 91
2019-04-11 01:00:00 4.2 16 Norte 22 Norte 0 -- -- 89
2019-04-11 00:00:00 5.7 13 Norte 26 Nordeste 0 -- -- 86
2019-04-10 23:00:00 7 17 Norte 25 Norte 0 -- -- 79
2019-04-10 22:00:00 7.5 15 Norte 23 Norte 0 -- -- 76
2019-04-10 21:00:00 7.8 17 Norte 29 Norte 0 -- -- 75
2019-04-10 20:00:00 11.7 7 Norte 15 Noroeste 0 -- -- 56
2019-04-10 19:00:00 11.3 5 Noroeste 20 Noroeste 0 -- -- 58
2019-04-10 18:00:00 12.5 8 Noroeste 18 Norte 0 -- -- 58
2019-04-10 17:00:00 9.1 7 Norte 15 Noroeste 0.2 -- -- 75
2019-04-10 16:00:00 7 12 Noroeste 32 Noroeste 1.2 -- -- 87
2019-04-10 15:00:00 9.9 10 Oeste 23 Oeste 0 -- -- 69
2019-04-10 14:00:00 8.4 10 Oeste 23 Oeste 0 -- -- 77
2019-04-10 13:00:00 8.4 9 Sudoeste 18 Sudoeste 0 -- -- 80
2019-04-10 12:00:00 6.6 10 Oeste 19 Oeste 0 -- -- 85
2019-04-10 11:00:00 5.2 10 Oeste 22 Sudoeste 0.4 -- -- 90
2019-04-10 10:00:00 4.7 9 Oeste 17 Oeste 0.4 -- -- 96
2019-04-10 09:00:00 4.1 5 Oeste 13 Oeste 0.6 -- -- 96
2019-04-10 08:00:00 4.2 5 Sudoeste 17 Oeste 0 -- -- 93
2019-04-10 07:00:00 4.3 6 Oeste 15 Sudoeste 0 -- -- 92
2019-04-10 06:00:00 4.5 7 Sudoeste 25 Oeste 0 -- -- 92
2019-04-10 05:00:00 4.6 8 Sudoeste 26 Oeste 0 -- -- 91
2019-04-10 04:00:00 5.3 12 Oeste 27 Sudoeste 0 -- -- 87
2019-04-10 03:00:00 5.5 9 Sudoeste 21 Sudoeste 0 -- -- 90
2019-04-10 02:00:00 5.5 10 Sudoeste 26 Sudoeste 0 -- -- 91
2019-04-10 01:00:00 5.3 7 Sudoeste 18 Sudoeste 0 -- -- 89
2019-04-10 00:00:00 5.9 8 Oeste 28 Oeste 0 -- -- 84
2019-04-09 23:00:00 6.6 10 Sudoeste 22 Oeste 0 -- -- 78
2019-04-09 22:00:00 6.4 8 Oeste 15 Oeste 0 -- -- 75
2019-04-09 21:00:00 7.4 8 Oeste 26 Oeste 0 -- -- 69
2019-04-09 20:00:00 10.3 10 Sudoeste 25 Oeste 0 -- -- 67
2019-04-09 19:00:00 10 14 Sudoeste 45 Oeste 0 -- -- 67
2019-04-09 18:00:00 11.8 18 Oeste 39 Oeste 0 -- -- 52
2019-04-09 17:00:00 10.6 22 Oeste 41 Oeste 0.2 -- -- 57
2019-04-09 16:00:00 8.7 18 Oeste 34 Sudoeste 0 -- -- 72
2019-04-09 15:00:00 7.1 19 Oeste 34 Sudoeste 0 -- -- 89
2019-04-09 14:00:00 6.3 13 Sudoeste 38 Sudoeste 0.6 -- -- 93
2019-04-09 13:00:00 5.5 11 Sudoeste 42 Sudoeste 1.8 -- -- 97
2019-04-09 12:00:00 6.9 11 Oeste 23 Sudoeste 0.4 -- -- 89
2019-04-09 11:00:00 6.5 10 Sudoeste 23 Sudoeste 0.2 -- -- 90
2019-04-09 10:00:00 5.4 6 Sur 10 Sur 0.2 -- -- 97
2019-04-09 09:00:00 3.2 0 Calma 3 Este 0.8 -- -- 99
2019-04-09 08:00:00 1 0 Calma 4 Nordeste 0.2 -- -- 99
2019-04-09 07:00:00 -0.7 2 Este 4 Este 0 -- -- 99
2019-04-09 06:00:00 -0.3 0 Calma 3 Sudoeste 0 -- -- 99
2019-04-09 05:00:00 -0.6 0 Calma 3 Noroeste 0 -- -- 99
2019-04-09 04:00:00 -1 2 Nordeste 5 Sudoeste 0 -- -- 99
2019-04-09 03:00:00 -0.3 0 Calma 4 Este 0 -- -- 97
2019-04-09 02:00:00 1.4 2 Sudoeste 9 Sudoeste 0 -- -- 96
2019-04-09 01:00:00 3.3 3 Oeste 8 Sudoeste 0 -- -- 92
2019-04-09 00:00:00 4.8 5 Sudoeste 12 Oeste 0 -- -- 86
2019-04-08 23:00:00 6.7 9 Sudoeste 18 Sudoeste 0 -- -- 78
2019-04-08 22:00:00 8.5 9 Sudoeste 18 Sudoeste 0 -- -- 66
2019-04-08 21:00:00 9.2 5 Oeste 24 Oeste 0 -- -- 68
2019-04-08 20:00:00 11.7 14 Oeste 27 Oeste 0 -- -- 54
2019-04-08 19:00:00 14.2 13 Oeste 30 Oeste 0 -- -- 41
2019-04-08 18:00:00 13.1 16 Sudoeste 29 Oeste 0 -- -- 51
2019-04-08 17:00:00 13.3 7 Oeste 22 Sudoeste 0 -- -- 56
2019-04-08 16:00:00 8.9 19 Sudoeste 38 Sudoeste 0 -- -- 80
2019-04-08 15:00:00 13.3 8 Oeste 30 Sur 0 -- -- 55
2019-04-08 14:00:00 12.4 10 Sudoeste 28 Oeste 0 -- -- 61
2019-04-08 13:00:00 11.2 15 Oeste 29 Sudoeste 0 -- -- 64
2019-04-08 12:00:00 9.8 12 Oeste 22 Oeste 0 -- -- 77
2019-04-08 11:00:00 9.2 8 Sudoeste 20 Sudoeste 0 -- -- 85
2019-04-08 10:00:00 8.1 9 Sudoeste 26 Oeste 0 -- -- 92
2019-04-08 09:00:00 7.6 10 Oeste 19 Oeste 0.2 -- -- 98
2019-04-08 08:00:00 7.1 5 Sudoeste 22 Sudoeste 0.4 -- -- 99
2019-04-08 07:00:00 6.7 4 Sudoeste 10 Sudoeste 0.4 -- -- 99
2019-04-08 06:00:00 6.3 4 Este 5 Este 0.2 -- -- 99
2019-04-08 05:00:00 6 0 Calma 4 Oeste 0.4 -- -- 99
2019-04-08 04:00:00 6.2 2 Oeste 5 Oeste 0 -- -- 99
2019-04-08 03:00:00 5.9 0 Calma 5 Oeste 0 -- -- 98
2019-04-08 02:00:00 6.2 3 Oeste 5 Oeste 0 -- -- 98
2019-04-08 01:00:00 5.5 3 Este 7 Sudeste 0 -- -- 98
2019-04-08 00:00:00 5.1 5 Este 10 Este 0.2 -- -- 98
2019-04-07 23:00:00 5.1 6 Este 9 Este 0.6 -- -- 97
2019-04-07 22:00:00 5.2 7 Este 10 Este 0.6 -- -- 97
2019-04-07 21:00:00 5.5 4 Sudeste 10 Sur 1 -- -- 96
2019-04-07 20:00:00 5.8 4 Sudoeste 14 Sur 0.8 -- -- 95
2019-04-07 19:00:00 6.1 9 Sudoeste 26 Sudoeste 1.2 -- -- 91
2019-04-07 18:00:00 8.2 16 Sudoeste 36 Sudoeste 0 -- -- 73
2019-04-07 17:00:00 11 11 Sudoeste 28 Sudoeste 0 -- -- 49
2019-04-07 16:00:00 11 13 Sudoeste 27 Oeste 0 -- -- 46
2019-04-07 15:00:00 10.6 13 Sudoeste 27 Sudoeste 0 -- -- 49
2019-04-07 14:00:00 10.1 12 Sudoeste 25 Oeste 0 -- -- 52
2019-04-07 13:00:00 7.4 9 Oeste 20 Oeste 0 -- -- 59
2019-04-07 12:00:00 7.6 12 Sudoeste 22 Sudoeste 0 -- -- 68
2019-04-07 11:00:00 5.2 10 Sudoeste 25 Sudoeste 0 -- -- 83
2019-04-07 10:00:00 3.5 9 Sudoeste 19 Oeste 0 -- -- 90
2019-04-07 09:00:00 2.8 8 Sudoeste 21 Oeste 0 -- -- 92
2019-04-07 08:00:00 2.8 7 Sudoeste 18 Sudoeste 0 -- -- 93
2019-04-07 07:00:00 2.9 9 Oeste 19 Oeste 0 -- -- 92
2019-04-07 06:00:00 2.9 7 Oeste 23 Oeste 0 -- -- 94
2019-04-07 05:00:00 2.8 10 Oeste 21 Oeste 0 -- -- 95
2019-04-07 04:00:00 2.9 8 Sudoeste 15 Oeste 0 -- -- 96
2019-04-07 03:00:00 2.8 11 Oeste 30 Sudoeste 0.6 -- -- 93
2019-04-07 02:00:00 3.6 7 Sudoeste 21 Sudoeste 0 -- -- 88
2019-04-07 01:00:00 3.3 10 Sudoeste 24 Oeste 0 -- -- 87
2019-04-07 00:00:00 3.6 12 Sudoeste 24 Oeste 0 -- -- 84
2019-04-06 23:00:00 4.8 12 Sudoeste 34 Sudoeste 0 -- -- 72
2019-04-06 22:00:00 5.8 10 Oeste 32 Oeste 0 -- -- 63
2019-04-06 21:00:00 6.4 16 Oeste 45 Oeste 0 -- -- 66
2019-04-06 20:00:00 7.2 17 Oeste 41 Oeste 0 -- -- 62
2019-04-06 19:00:00 7.2 18 Oeste 44 Oeste 0 -- -- 64
2019-04-06 18:00:00 6.9 26 Oeste 50 Oeste 0 -- -- 67
2019-04-06 17:00:00 6.6 19 Sudoeste 59 Sudoeste 0.2 -- -- 80
2019-04-06 16:00:00 8.9 24 Sudoeste 64 Oeste 0 -- -- 64
2019-04-06 15:00:00 7 19 Oeste 43 Oeste 0.4 -- -- 74
2019-04-06 14:00:00 5 17 Sudoeste 43 Sudoeste 0.2 -- -- 85
2019-04-06 13:00:00 4.7 23 Sudoeste 43 Oeste 0.2 -- -- 83
2019-04-06 12:00:00 6.5 20 Sudoeste 43 Sudoeste 0 -- -- 72
2019-04-06 11:00:00 4.8 17 Sudoeste 40 Sudoeste 0 -- -- 81
2019-04-06 10:00:00 4.1 14 Sudoeste 30 Sudoeste 0 -- -- 87
2019-04-06 09:00:00 2.7 8 Sudoeste 16 Sur 0 -- -- 93
2019-04-06 08:00:00 2 6 Sur 17 Sudoeste 0.2 -- -- 95
2019-04-06 07:00:00 2.4 8 Sudoeste 19 Sudoeste 0 -- -- 92
2019-04-06 06:00:00 2.3 8 Sudoeste 15 Sudoeste 0 -- -- 94
2019-04-06 05:00:00 2.3 8 Sudoeste 26 Sudoeste 0 -- -- 94
2019-04-06 04:00:00 2.5 9 Sudoeste 19 Sudoeste 0 -- -- 96
2019-04-06 03:00:00 2.5 6 Sudoeste 17 Sudoeste 0 -- -- 97
2019-04-06 02:00:00 2.4 9 Sudoeste 19 Sudoeste 0 -- -- 97
2019-04-06 01:00:00 2.4 9 Sudoeste 15 Sudoeste 0 -- -- 97
2019-04-06 00:00:00 2.7 6 Sudoeste 13 Sudoeste 0 -- -- 98
2019-04-05 23:00:00 2.2 0 Calma 3 Sudoeste 0.2 -- -- 98
2019-04-05 22:00:00 1.1 0 Calma 11 Este 0 -- -- 98
2019-04-05 21:00:00 1.8 10 Este 13 Este 0.2 -- -- 96
2019-04-05 20:00:00 2.6 8 Sudeste 12 Sudeste 0 -- -- 94
2019-04-05 19:00:00 2.8 9 Sudeste 14 Sudeste 0.6 -- -- 96
2019-04-05 18:00:00 0.6 2 Sur 35 Oeste 2.4 -- -- 96
2019-04-05 17:00:00 5.8 9 Sur 20 Sudoeste 0 -- -- 77
2019-04-05 16:00:00 5.3 8 Sur 17 Sur 0 -- -- 85
2019-04-05 15:00:00 2.5 11 Sudeste 15 Sudeste 0.2 -- -- 97
2019-04-05 14:00:00 2 3 Sudoeste 19 Oeste 2.2 -- -- 95
2019-04-05 13:00:00 2.4 13 Oeste 27 Oeste 1.2 -- -- 92
2019-04-05 12:00:00 4.2 6 Sudoeste 14 Sudoeste 0.2 -- -- 92
2019-04-05 11:00:00 2.8 4 Sur 10 Oeste 0.2 -- -- 96
2019-04-05 10:00:00 2.3 8 Oeste 25 Sudoeste 2 -- -- 97
2019-04-05 09:00:00 4 9 Oeste 18 Oeste 0.4 -- -- 93
2019-04-05 08:00:00 3.6 2 Sudoeste 4 Oeste 0.2 -- -- 95
2019-04-05 07:00:00 3.6 0 Calma 4 Este 0 -- -- 95
2019-04-05 06:00:00 3.5 2 Este 4 Este 0.2 -- -- 95
2019-04-05 05:00:00 3.5 3 Sudoeste 10 Sudoeste 0.4 -- -- 93
2019-04-05 04:00:00 3 2 Sudeste 16 Sudeste 0.2 -- -- 91
2019-04-05 03:00:00 3.9 5 Sudeste 11 Sur 0 -- -- 88
2019-04-05 02:00:00 3.9 4 Sudeste 6 Sur 0 -- -- 87
2019-04-05 01:00:00 4.5 3 Sur 8 Sur 0 -- -- 82
2019-04-05 00:00:00 4.7 3 Sudoeste 13 Oeste 0 -- -- 79
2019-04-04 23:00:00 5.6 9 Oeste 22 Sudoeste 0 -- -- 70
2019-04-04 22:00:00 6.6 15 Oeste 28 Oeste 0 -- -- 60
2019-04-04 21:00:00 7.9 16 Oeste 36 Noroeste 0 -- -- 49
2019-04-04 20:00:00 9.5 16 Oeste 27 Oeste 0 -- -- 40
2019-04-04 19:00:00 10.6 17 Oeste 29 Oeste 0 -- -- 33
2019-04-04 18:00:00 12.1 13 Oeste 28 Oeste 0 -- -- 30
2019-04-04 17:00:00 11.3 17 Sudoeste 35 Sudoeste 0 -- -- 30
2019-04-04 16:00:00 11.2 17 Sur 32 Sudoeste 0 -- -- 35
2019-04-04 15:00:00 10.3 13 Sudoeste 33 Sur 0 -- -- 35
2019-04-04 14:00:00 8.7 13 Sudoeste 28 Sudoeste 0 -- -- 39
2019-04-04 13:00:00 8.6 9 Sudoeste 23 Sudoeste 0 -- -- 44
2019-04-04 12:00:00 7 9 Sudoeste 21 Oeste 0 -- -- 47
2019-04-04 11:00:00 4.4 10 Sudoeste 18 Oeste 0 -- -- 57
2019-04-04 10:00:00 1.8 5 Sudoeste 12 Sudoeste 0 -- -- 66
2019-04-04 09:00:00 -0.5 0 Calma 3 Este 0 -- -- 72
2019-04-04 08:00:00 -8.6 0 Calma 2 Oeste 0 -- -- 94
2019-04-04 07:00:00 -8.3 0 Calma 3 Noroeste 0 -- -- 89
2019-04-04 06:00:00 -5.8 0 Calma 8 Sur 0 -- -- 89
2019-04-04 05:00:00 -6.6 2 Este 9 Noroeste 0 -- -- 90
2019-04-04 04:00:00 -5.8 3 Sudeste 8 Noroeste 0 -- -- 90
2019-04-04 03:00:00 -6.3 0 Calma 4 Este 0 -- -- 87
2019-04-04 02:00:00 -4.8 0 Calma 6 Noroeste 0 -- -- 79
2019-04-04 01:00:00 -2.2 5 Noroeste 9 Noroeste 0 -- -- 72
2019-04-04 00:00:00 -0.8 3 Oeste 18 Noroeste 0 -- -- 61
2019-04-03 23:00:00 3.1 13 Noroeste 25 Noroeste 0 -- -- 49
2019-04-03 22:00:00 4.6 15 Noroeste 24 Noroeste 0 -- -- 48
2019-04-03 21:00:00 4.9 12 Noroeste 33 Oeste 0 -- -- 51
2019-04-03 20:00:00 8.9 21 Noroeste 36 Noroeste 0 -- -- 41
2019-04-03 19:00:00 9.8 23 Noroeste 41 Noroeste 0 -- -- 44
2019-04-03 18:00:00 11.3 26 Noroeste 42 Noroeste 0 -- -- 33
2019-04-03 17:00:00 12.2 25 Oeste 39 Oeste 0 -- -- 33
2019-04-03 16:00:00 12.5 20 Noroeste 37 Oeste 0 -- -- 30
2019-04-03 15:00:00 11.4 18 Oeste 32 Noroeste 0 -- -- 36
2019-04-03 14:00:00 10.6 12 Oeste 29 Oeste 0 -- -- 44
2019-04-03 13:00:00 9.6 11 Oeste 23 Oeste 0 -- -- 53
2019-04-03 12:00:00 6.9 13 Oeste 22 Oeste 0 -- -- 65
2019-04-03 11:00:00 5.8 9 Oeste 19 Sudoeste 0 -- -- 75
2019-04-03 10:00:00 3.8 3 Oeste 9 Sudoeste 0 -- -- 82
2019-04-03 09:00:00 1.2 2 Oeste 4 Oeste 0 -- -- 91
2019-04-03 08:00:00 -1.3 0 Calma 2 Oeste 0 -- -- 94
2019-04-03 07:00:00 -2.3 0 Calma 2 Noroeste 0 -- -- 96
2019-04-03 06:00:00 -1.8 0 Calma 2 Sudoeste 0 -- -- 94
2019-04-03 05:00:00 0.1 0 Calma 2 Sudeste 0 -- -- 91
2019-04-03 04:00:00 1.3 0 Calma 4 Este 0 -- -- 89
2019-04-03 03:00:00 -0.1 4 Este 5 Este 0 -- -- 91
2019-04-03 02:00:00 1.7 2 Nordeste 5 Nordeste 0 -- -- 83
2019-04-03 01:00:00 0.7 3 Sudoeste 9 Noroeste 0 -- -- 83
2019-04-03 00:00:00 1.5 0 Calma 4 Oeste 0 -- -- 82
2019-04-02 23:00:00 2.7 0 Calma 3 Nordeste 0 -- -- 77
2019-04-02 22:00:00 4.9 2 Sur 4 Oeste 0 -- -- 67
2019-04-02 21:00:00 10.8 4 Oeste 18 Oeste 0 -- -- 51
2019-04-02 20:00:00 15.8 11 Oeste 27 Oeste 0 -- -- 37
2019-04-02 19:00:00 17.6 17 Oeste 28 Oeste 0 -- -- 35
2019-04-02 18:00:00 16.8 15 Oeste 32 Oeste 0 -- -- 39
2019-04-02 17:00:00 18.4 17 Oeste 33 Oeste 0 -- -- 33
2019-04-02 16:00:00 18.3 12 Oeste 26 Oeste 0 -- -- 34
2019-04-02 15:00:00 16.7 13 Oeste 25 Oeste 0 -- -- 46
2019-04-02 14:00:00 15 16 Sudoeste 29 Sudoeste 0 -- -- 51
2019-04-02 13:00:00 14.7 13 Sudoeste 25 Sur 0 -- -- 62
2019-04-02 12:00:00 11.6 8 Sudoeste 19 Sudoeste 0 -- -- 69
2019-04-02 11:00:00 9.9 5 Oeste 15 Sudoeste 0 -- -- 74
2019-04-02 10:00:00 11.1 0 Calma 4 Sudeste 0 -- -- 68
2019-04-02 09:00:00 4.2 0 Calma 3 Sudeste 0 -- -- 91
2019-04-02 08:00:00 1.3 0 Calma 4 Sudeste 0 -- -- 95
2019-04-02 07:00:00 0.8 0 Calma 4 Este 0 -- -- 96
2019-04-02 06:00:00 0 0 Calma 4 Sudeste 0 -- -- 95
2019-04-02 05:00:00 0.3 0 Calma 3 Sur 0 -- -- 95
2019-04-02 04:00:00 -0.2 0 Calma 8 Este 0 -- -- 95
2019-04-02 03:00:00 1 3 Este 5 Este 0 -- -- 93
2019-04-02 02:00:00 1.6 4 Este 6 Este 0 -- -- 89
2019-04-02 01:00:00 1.9 3 Este 5 Sudeste 0 -- -- 89
2019-04-02 00:00:00 3.1 0 Calma 4 Sudeste 0 -- -- 84
2019-04-01 23:00:00 5.4 0 Calma 10 Sur 0 -- -- 75
2019-04-01 22:00:00 7 3 Nordeste 9 Este 0 -- -- 67
2019-04-01 21:00:00 8.9 7 Norte 10 Norte 0 -- -- 57
2019-04-01 20:00:00 14 6 Norte 14 Norte 0 -- -- 48
2019-04-01 19:00:00 17.5 2 Este 15 Norte 0 -- -- 33
2019-04-01 18:00:00 18.5 12 Norte 20 Norte 0 -- -- 32
2019-04-01 17:00:00 18.1 5 Este 17 Noroeste 0 -- -- 35
2019-04-01 16:00:00 17.9 5 Oeste 20 Nordeste 0 -- -- 38
2019-04-01 15:00:00 17.3 6 Noroeste 18 Norte 0 -- -- 39
2019-04-01 14:00:00 16.6 9 Nordeste 23 Nordeste 0 -- -- 46
2019-04-01 13:00:00 15 6 Norte 15 Nordeste 0 -- -- 54
2019-04-01 12:00:00 13.2 6 Nordeste 14 Nordeste 0 -- -- 58
2019-04-01 11:00:00 11.3 9 Nordeste 14 Norte 0 -- -- 68
2019-04-01 10:00:00 9.6 9 Norte 13 Norte 0 -- -- 75
2019-04-01 09:00:00 3.3 0 Calma 9 Este 0 -- -- 92
2019-04-01 08:00:00 1.6 4 Este 12 Nordeste 0 -- -- 98
2019-04-01 07:00:00 1.3 5 Nordeste 13 Norte 0 -- -- 97
2019-04-01 06:00:00 2.9 3 Nordeste 17 Este 0 -- -- 96
2019-04-01 05:00:00 3.3 11 Norte 15 Norte 0 -- -- 93
2019-04-01 04:00:00 2.8 6 Norte 9 Norte 0 -- -- 91
2019-04-01 03:00:00 6.5 7 Nordeste 17 Nordeste 0 -- -- 83
2019-04-01 02:00:00 6.6 9 Nordeste 14 Nordeste 0 -- -- 83
2019-04-01 01:00:00 6 9 Este 25 Este 0 -- -- 82
2019-04-01 00:00:00 6.9 14 Este 27 Este 0 -- -- 79
2019-03-31 23:00:00 7.3 14 Nordeste 27 Nordeste 0 -- -- 78
2019-03-31 22:00:00 8.5 21 Nordeste 35 Este 0 -- -- 76
2019-03-31 21:00:00 9.4 16 Este 35 Este 0 -- -- 74
2019-03-31 20:00:00 11.6 21 Este 35 Este 0 -- -- 70
2019-03-31 19:00:00 13.2 21 Este 33 Nordeste 0 -- -- 61
2019-03-31 18:00:00 13.8 15 Este 27 Este 0 -- -- 63
2019-03-31 17:00:00 14.4 2 Nordeste 29 Este 0 -- -- 53
2019-03-31 16:00:00 14.9 10 Nordeste 38 Nordeste 0.2 -- -- 50
2019-03-31 15:00:00 13 26 Nordeste 40 Nordeste 0 -- -- 63
2019-03-31 14:00:00 17.8 12 Este 27 Nordeste 0 -- -- 37
2019-03-31 13:00:00 18.3 13 Nordeste 24 Nordeste 0 -- -- 41
2019-03-31 12:00:00 17 8 Este 18 Este 0 -- -- 43
2019-03-31 11:00:00 13.6 10 Nordeste 16 Nordeste 0 -- -- 52
2019-03-31 10:00:00 7.8 6 Nordeste 13 Norte 0 -- -- 68
2019-03-31 09:00:00 1.1 3 Este 10 Sudeste 0 -- -- 79
2019-03-31 08:00:00 1.4 8 Este 18 Nordeste 0 -- -- 72
2019-03-31 07:00:00 -0.5 6 Este 8 Este 0 -- -- 80
2019-03-31 06:00:00 -0.6 6 Este 15 Nordeste 0 -- -- 80
2019-03-31 05:00:00 -0.2 4 Este 9 Nordeste 0 -- -- 78
2019-03-31 03:00:00 3.5 9 Nordeste 15 Norte 0 -- -- 65
2019-03-31 01:00:00 2.4 3 Sudeste 18 Nordeste 0 -- -- 70
2019-03-31 00:00:00 2.4 4 Este 13 Este 0 -- -- 71
2019-03-30 23:00:00 4.3 3 Este 9 Este 0 -- -- 65
2019-03-30 22:00:00 8.7 3 Nordeste 18 Sur 0 -- -- 48
2019-03-30 21:00:00 10.7 14 Norte 14 Norte 0 -- -- 40
2019-03-30 20:00:00 12.8 7 Norte 9 Nordeste 0 -- -- 38
2019-03-30 19:00:00 18.4 4 Noroeste 12 Norte 0 -- -- 25
2019-03-30 18:00:00 19.5 6 Nordeste 12 Nordeste 0 -- -- 24
2019-03-30 17:00:00 19.6 7 Nordeste 17 Nordeste 0 -- -- 25
2019-03-30 16:00:00 17.7 7 Nordeste 22 Este 0 -- -- 27
2019-03-30 15:00:00 19.8 7 Nordeste 19 Nordeste 0 -- -- 25
2019-03-30 14:00:00 19.6 8 Norte 25 Nordeste 0 -- -- 25
2019-03-30 13:00:00 18.1 5 Este 19 Este 0 -- -- 32
2019-03-30 12:00:00 17.7 8 Nordeste 15 Nordeste 0 -- -- 34
2019-03-30 11:00:00 15.9 5 Nordeste 11 Este 0 -- -- 38
2019-03-30 10:00:00 12.2 7 Este 12 Este 0 -- -- 50
2019-03-30 09:00:00 8.2 3 Sudeste 5 Este 0 -- -- 65
2019-03-30 08:00:00 -0.1 3 Este 6 Este 0 -- -- 79
2019-03-30 07:00:00 -4.7 4 Este 6 Este 0 -- -- 88
2019-03-30 06:00:00 -4.3 2 Este 5 Este 0 -- -- 87
2019-03-30 05:00:00 -3.7 3 Sudeste 10 Este 0 -- -- 85
2019-03-30 04:00:00 -4 6 Este 10 Este 0 -- -- 85
2019-03-30 03:00:00 -2.6 3 Este 9 Este 0 -- -- 81
2019-03-30 02:00:00 -2 3 Este 6 Sudeste 0 -- -- 78
2019-03-30 01:00:00 -1 4 Este 6 Este 0 -- -- 78
2019-03-30 00:00:00 0.2 0 Calma 4 Sudeste 0 -- -- 74
2019-03-29 23:00:00 1.6 0 Calma 8 Este 0 -- -- 69
2019-03-29 22:00:00 2.3 0 Calma 4 Sudeste 0 -- -- 67
2019-03-29 21:00:00 8 0 Calma 7 Sudeste 0 -- -- 44
2019-03-29 20:00:00 13 5 Sur 25 Sur 0 -- -- 33
2019-03-29 19:00:00 16 10 Sur 24 Este 0 -- -- 28
2019-03-29 18:00:00 17.9 5 Noroeste 9 Oeste 0 -- -- 27
2019-03-29 17:00:00 17.6 3 Oeste 12 Sudoeste 0 -- -- 26
2019-03-29 16:00:00 19.4 6 Sudeste 18 Oeste 0 -- -- 26
2019-03-29 15:00:00 19.7 5 Sudeste 17 Norte 0 -- -- 25
2019-03-29 14:00:00 19.5 5 Este 17 Nordeste 0 -- -- 27
2019-03-29 13:00:00 18.4 5 Nordeste 18 Norte 0 -- -- 27
2019-03-29 12:00:00 17.1 4 Sudoeste 15 Oeste 0 -- -- 29
2019-03-29 11:00:00 15.1 5 Sudoeste 11 Sudoeste 0 -- -- 31
2019-03-29 10:00:00 13.7 0 Calma 8 Este 0 -- -- 38
2019-03-29 09:00:00 8.5 2 Sudeste 5 Sudeste 0 -- -- 61
2019-03-29 08:00:00 -0.4 4 Sudeste 8 Este 0 -- -- 83
2019-03-29 07:00:00 -4.7 6 Este 8 Este 0 -- -- 92
2019-03-29 06:00:00 -4.3 5 Este 7 Este 0 -- -- 92
2019-03-29 05:00:00 -3.7 3 Este 8 Sudeste 0 -- -- 91
2019-03-29 04:00:00 -2.6 4 Este 8 Sudeste 0 -- -- 93
2019-03-29 03:00:00 -2 5 Este 7 Este 0 -- -- 89
2019-03-29 02:00:00 -0.1 4 Nordeste 17 Sudeste 0 -- -- 86
2019-03-29 01:00:00 2 6 Este 17 Sudeste 0 -- -- 82
2019-03-29 00:00:00 3.9 3 Noroeste 7 Noroeste 0 -- -- 77
2019-03-28 23:00:00 6 3 Noroeste 21 Sur 0 -- -- 66
2019-03-28 22:00:00 7.6 6 Sudeste 27 Norte 0 -- -- 62
2019-03-28 21:00:00 10.9 22 Norte 28 Norte 0 -- -- 51
2019-03-28 20:00:00 12.6 15 Norte 21 Norte 0 -- -- 41
2019-03-28 19:00:00 18 6 Norte 12 Norte 0 -- -- 29
2019-03-28 18:00:00 20.1 5 Norte 16 Norte 0 -- -- 24
2019-03-28 17:00:00 19.8 7 Noroeste 16 Nordeste 0 -- -- 23
2019-03-28 16:00:00 19.5 6 Sudeste 16 Nordeste 0 -- -- 26
2019-03-28 15:00:00 18.7 4 Nordeste 17 Nordeste 0 -- -- 25
2019-03-28 14:00:00 17.7 5 Nordeste 19 Norte 0 -- -- 26
2019-03-28 13:00:00 17.3 5 Nordeste 15 Este 0 -- -- 27
2019-03-28 12:00:00 16.2 8 Norte 17 Nordeste 0 -- -- 30
2019-03-28 11:00:00 14.2 8 Nordeste 20 Este 0 -- -- 36
2019-03-28 10:00:00 11.6 10 Nordeste 18 Este 0 -- -- 41
2019-03-28 09:00:00 7.8 9 Nordeste 27 Norte 0 -- -- 48
2019-03-28 08:00:00 2.2 11 Nordeste 16 Nordeste 0 -- -- 64
2019-03-28 07:00:00 -2.8 2 Nordeste 8 Este 0 -- -- 74
2019-03-28 06:00:00 0.4 7 Este 28 Nordeste 0 -- -- 61
2019-03-28 05:00:00 2.2 21 Nordeste 31 Norte 0 -- -- 54
2019-03-28 04:00:00 3 26 Norte 38 Norte 0 -- -- 51
2019-03-28 03:00:00 3.7 26 Norte 32 Norte 0 -- -- 48
2019-03-28 02:00:00 4.2 24 Norte 36 Norte 0 -- -- 46
2019-03-28 01:00:00 5.3 28 Norte 35 Norte 0 -- -- 43
2019-03-28 00:00:00 6.3 23 Norte 31 Norte 0 -- -- 44
2019-03-27 23:00:00 6.9 23 Norte 36 Norte 0 -- -- 44
2019-03-27 22:00:00 8.4 28 Norte 41 Norte 0 -- -- 40
2019-03-27 21:00:00 9.9 30 Norte 41 Norte 0 -- -- 36
2019-03-27 20:00:00 11.8 32 Norte 45 Norte 0 -- -- 32
2019-03-27 19:00:00 15.1 27 Norte 41 Norte 0 -- -- 27
2019-03-27 18:00:00 18.6 28 Norte 36 Norte 0 -- -- 23
2019-03-27 17:00:00 20.6 11 Norte 34 Nordeste 0 -- -- 20
2019-03-27 16:00:00 20.4 14 Nordeste 31 Norte 0 -- -- 19
2019-03-27 15:00:00 20.2 18 Nordeste 29 Nordeste 0 -- -- 18
2019-03-27 14:00:00 19 16 Nordeste 29 Nordeste 0 -- -- 20
2019-03-27 13:00:00 17.5 12 Nordeste 22 Nordeste 0 -- -- 24
2019-03-27 12:00:00 14.9 7 Este 19 Nordeste 0 -- -- 30
2019-03-27 11:00:00 12.7 8 Nordeste 15 Este 0 -- -- 32
2019-03-27 10:00:00 9.4 5 Sudeste 19 Nordeste 0 -- -- 38
2019-03-27 09:00:00 7.3 2 Nordeste 6 Sudeste 0 -- -- 40
2019-03-27 08:00:00 2.6 4 Este 17 Este 0 -- -- 46
2019-03-27 07:00:00 -0.2 5 Este 15 Nordeste 0 -- -- 51
2019-03-27 06:00:00 1.6 15 Nordeste 34 Norte 0 -- -- 46
2019-03-27 05:00:00 2 27 Norte 41 Nordeste 0 -- -- 47
2019-03-27 04:00:00 2.2 29 Norte 37 Norte 0 -- -- 45
2019-03-27 03:00:00 2.9 29 Norte 41 Norte 0 -- -- 43
2019-03-27 02:00:00 3.4 26 Norte 36 Norte 0 -- -- 42
2019-03-27 01:00:00 4.3 25 Norte 41 Norte 0 -- -- 40
2019-03-27 00:00:00 4.8 28 Norte 35 Norte 0 -- -- 39
2019-03-26 23:00:00 6.1 27 Norte 39 Norte 0 -- -- 36
2019-03-26 22:00:00 7.1 29 Norte 38 Norte 0 -- -- 35
2019-03-26 21:00:00 9 29 Norte 42 Norte 0 -- -- 31
2019-03-26 20:00:00 11.3 24 Norte 36 Norte 0 -- -- 29
2019-03-26 19:00:00 16.4 20 Nordeste 36 Nordeste 0 -- -- 18
2019-03-26 18:00:00 19.1 25 Nordeste 43 Nordeste 0 -- -- 18
2019-03-26 17:00:00 19.6 29 Nordeste 46 Nordeste 0 -- -- 19
2019-03-26 16:00:00 19.7 34 Nordeste 50 Nordeste 0 -- -- 19
2019-03-26 15:00:00 19.6 32 Nordeste 48 Nordeste 0 -- -- 22
2019-03-26 14:00:00 18.8 33 Nordeste 48 Nordeste 0 -- -- 25
2019-03-26 13:00:00 16.6 32 Nordeste 43 Nordeste 0 -- -- 29
2019-03-26 12:00:00 14.7 27 Nordeste 42 Nordeste 0 -- -- 33
2019-03-26 11:00:00 12.5 27 Nordeste 36 Nordeste 0 -- -- 40
2019-03-26 10:00:00 10 24 Nordeste 35 Nordeste 0 -- -- 45
2019-03-26 09:00:00 6.4 24 Nordeste 32 Norte 0 -- -- 60
2019-03-26 08:00:00 2.8 23 Norte 30 Norte 0 -- -- 76
2019-03-26 07:00:00 1.1 21 Norte 28 Norte 0 -- -- 83
2019-03-26 06:00:00 0.1 12 Norte 23 Nordeste 0 -- -- 82
2019-03-26 05:00:00 0.7 15 Norte 27 Nordeste 0 -- -- 78
2019-03-26 04:00:00 1.3 19 Nordeste 29 Norte 0 -- -- 75
2019-03-26 03:00:00 0.9 11 Nordeste 34 Norte 0 -- -- 76
2019-03-26 02:00:00 2.1 24 Norte 40 Norte 0 -- -- 74
2019-03-26 01:00:00 2.6 27 Norte 46 Norte 0 -- -- 72
2019-03-26 00:00:00 3.8 34 Norte 46 Norte 0 -- -- 66
2019-03-25 23:00:00 4.8 35 Norte 46 Norte 0 -- -- 66
2019-03-25 22:00:00 5.8 30 Norte 43 Norte 0 -- -- 58
2019-03-25 21:00:00 7.3 28 Norte 45 Norte 0 -- -- 56
2019-03-25 20:00:00 9 33 Norte 46 Nordeste 0 -- -- 49
2019-03-25 19:00:00 11.9 31 Norte 42 Norte 0 -- -- 44
2019-03-25 18:00:00 14.8 28 Norte 39 Norte 0 -- -- 40
2019-03-25 17:00:00 16.4 26 Norte 38 Norte 0 -- -- 37
2019-03-25 16:00:00 17 24 Norte 36 Norte 0 -- -- 37
2019-03-25 15:00:00 17.1 22 Norte 39 Norte 0 -- -- 38
2019-03-25 14:00:00 15.7 24 Norte 37 Nordeste 0 -- -- 38
2019-03-25 13:00:00 15.7 21 Norte 32 Norte 0 -- -- 41
2019-03-25 12:00:00 15.1 21 Nordeste 31 Norte 0 -- -- 45
2019-03-25 11:00:00 13.9 21 Nordeste 35 Nordeste 0 -- -- 50
2019-03-25 10:00:00 10.8 25 Norte 37 Norte 0 -- -- 60
2019-03-25 09:00:00 8 26 Norte 36 Norte 0 -- -- 66
2019-03-25 08:00:00 5.3 25 Norte 34 Norte 0 -- -- 70
2019-03-25 07:00:00 4.5 18 Norte 30 Norte 0 -- -- 71
2019-03-25 06:00:00 4 8 Este 14 Este 0 -- -- 73
2019-03-25 05:00:00 4.8 9 Norte 24 Norte 0 -- -- 71
2019-03-25 04:00:00 6.3 18 Norte 28 Norte 0 -- -- 65
2019-03-25 03:00:00 6.6 23 Norte 32 Nordeste 0 -- -- 67
2019-03-25 02:00:00 7.4 24 Nordeste 31 Nordeste 0 -- -- 67
2019-03-25 01:00:00 8.2 21 Nordeste 27 Nordeste 0 -- -- 66
2019-03-25 00:00:00 9.1 21 Nordeste 32 Norte 0 -- -- 63
2019-03-24 23:00:00 10.7 24 Norte 37 Norte 0 -- -- 59
2019-03-24 22:00:00 12.5 30 Norte 38 Norte 0 -- -- 52
2019-03-24 21:00:00 12.8 18 Norte 23 Norte 0 -- -- 40
2019-03-24 20:00:00 14.1 17 Norte 23 Norte 0 -- -- 38
2019-03-24 19:00:00 18.9 16 Nordeste 29 Nordeste 0 -- -- 21
2019-03-24 18:00:00 21.4 19 Nordeste 32 Nordeste 0 -- -- 19
2019-03-24 17:00:00 22.4 15 Nordeste 31 Nordeste 0 -- -- 20
2019-03-24 16:00:00 22.4 12 Este 31 Norte 0 -- -- 19
2019-03-24 15:00:00 21.4 14 Este 26 Nordeste 0 -- -- 21
2019-03-24 14:00:00 21.1 12 Nordeste 30 Nordeste 0 -- -- 25
2019-03-24 13:00:00 20.4 17 Este 29 Nordeste 0 -- -- 25
2019-03-24 12:00:00 19 13 Nordeste 21 Nordeste 0 -- -- 34
2019-03-24 11:00:00 16.9 10 Este 14 Este 0 -- -- 40
2019-03-24 10:00:00 14.9 4 Este 10 Este 0 -- -- 48
2019-03-24 09:00:00 8.8 6 Este 13 Este 0 -- -- 61
2019-03-24 08:00:00 5.3 5 Este 19 Este 0 -- -- 69
2019-03-24 07:00:00 1.8 8 Este 20 Nordeste 0 -- -- 80
2019-03-24 06:00:00 -0.3 3 Sudeste 12 Este 0 -- -- 89
2019-03-24 05:00:00 0.6 3 Este 10 Este 0 -- -- 91
2019-03-24 04:00:00 0.2 7 Este 10 Este 0 -- -- 87
2019-03-24 03:00:00 2 3 Este 6 Este 0 -- -- 84
2019-03-24 02:00:00 3.3 3 Sudeste 9 Sur 0 -- -- 79
2019-03-24 01:00:00 3 6 Este 9 Este 0 -- -- 77
2019-03-24 00:00:00 4.6 5 Este 12 Nordeste 0 -- -- 71
2019-03-23 23:00:00 7 7 Nordeste 10 Nordeste 0 -- -- 61
2019-03-23 22:00:00 5.6 4 Este 23 Sur 0 -- -- 61
2019-03-23 21:00:00 9.4 10 Nordeste 17 Nordeste 0 -- -- 47
2019-03-23 20:00:00 12.2 13 Nordeste 18 Este 0 -- -- 41
2019-03-23 19:00:00 16.9 14 Este 19 Este 0 -- -- 34
2019-03-23 18:00:00 18.4 11 Este 26 Este 0 -- -- 32
2019-03-23 17:00:00 20.7 15 Nordeste 34 Nordeste 0 -- -- 27
2019-03-23 16:00:00 20.8 14 Este 26 Este 0 -- -- 28
2019-03-23 15:00:00 19.3 10 Nordeste 27 Este 0 -- -- 31
2019-03-23 14:00:00 20.1 14 Este 36 Sudeste 0 -- -- 31
2019-03-23 13:00:00 19.7 12 Nordeste 28 Nordeste 0 -- -- 34
2019-03-23 12:00:00 18.7 13 Nordeste 24 Este 0 -- -- 34
2019-03-23 11:00:00 16.8 10 Nordeste 18 Este 0 -- -- 40
2019-03-23 10:00:00 13.2 7 Este 11 Este 0 -- -- 51
2019-03-23 09:00:00 7.3 3 Este 6 Este 0 -- -- 65
2019-03-23 08:00:00 -0.8 5 Este 8 Este 0 -- -- 85
2019-03-23 07:00:00 -4 5 Este 6 Este 0 -- -- 90
2019-03-23 06:00:00 -3.8 5 Este 9 Este 0 -- -- 88
2019-03-23 05:00:00 -3.1 4 Este 6 Sudeste 0 -- -- 88
2019-03-23 04:00:00 -2.7 4 Este 8 Este 0 -- -- 85
2019-03-23 03:00:00 -2.6 4 Este 6 Sudeste 0 -- -- 85
2019-03-23 02:00:00 -0.9 0 Calma 8 Este 0 -- -- 82
2019-03-23 01:00:00 -0.5 4 Este 13 Nordeste 0 -- -- 76
2019-03-23 00:00:00 5.9 8 Este 16 Nordeste 0 -- -- 55
2019-03-22 23:00:00 6.6 6 Nordeste 21 Nordeste 0 -- -- 52
2019-03-22 22:00:00 8.8 17 Nordeste 21 Nordeste 0 -- -- 46
2019-03-22 21:00:00 8.9 16 Norte 21 Nordeste 0 -- -- 43
2019-03-22 20:00:00 9.8 13 Nordeste 18 Norte 0 -- -- 40
2019-03-22 19:00:00 16 13 Norte 24 Norte 0 -- -- 29
2019-03-22 18:00:00 18.5 12 Norte 22 Norte 0 -- -- 24
2019-03-22 17:00:00 18.9 12 Nordeste 24 Nordeste 0 -- -- 24
2019-03-22 16:00:00 19 11 Norte 27 Nordeste 0 -- -- 26
2019-03-22 15:00:00 18 9 Nordeste 19 Nordeste 0 -- -- 26
2019-03-22 14:00:00 17.4 10 Nordeste 23 Nordeste 0 -- -- 28
2019-03-22 13:00:00 16.7 8 Nordeste 17 Este 0 -- -- 30
2019-03-22 12:00:00 15.6 7 Norte 12 Norte 0 -- -- 29
2019-03-22 11:00:00 14 4 Nordeste 11 Este 0 -- -- 33
2019-03-22 10:00:00 10.2 4 Este 9 Este 0 -- -- 47
2019-03-22 09:00:00 3.5 5 Sudeste 8 Sudeste 0 -- -- 68
2019-03-22 08:00:00 -2.8 4 Sudeste 10 Este 0 -- -- 83
2019-03-22 07:00:00 -5.7 6 Este 9 Este 0 -- -- 89
2019-03-22 06:00:00 -5.9 3 Este 5 Este 0 -- -- 90
2019-03-22 05:00:00 -5.1 3 Sudeste 4 Sudeste 0 -- -- 91
2019-03-22 04:00:00 -4 0 Calma 5 Este 0 -- -- 88
2019-03-22 03:00:00 -3.6 4 Este 7 Este 0 -- -- 88
2019-03-22 02:00:00 -3.2 4 Este 6 Este 0 -- -- 88
2019-03-22 01:00:00 -2 5 Este 12 Sudeste 0 -- -- 82
2019-03-22 00:00:00 1.4 8 Norte 12 Norte 0 -- -- 73
2019-03-21 23:00:00 2.4 2 Noroeste 15 Sur 0 -- -- 63
2019-03-21 22:00:00 3.9 6 Este 15 Norte 0 -- -- 60
2019-03-21 21:00:00 5.4 5 Este 8 Nordeste 0 -- -- 51
2019-03-21 20:00:00 6.4 9 Norte 12 Norte 0 -- -- 52
2019-03-21 19:00:00 14.5 6 Norte 10 Norte 0 -- -- 36
2019-03-21 18:00:00 15.9 5 Noroeste 15 Norte 0 -- -- 26
2019-03-21 17:00:00 16.3 7 Norte 19 Noroeste 0 -- -- 27
2019-03-21 16:00:00 15.9 5 Nordeste 17 Norte 0 -- -- 29
2019-03-21 15:00:00 15.4 8 Norte 17 Norte 0 -- -- 30
2019-03-21 14:00:00 13.8 7 Noroeste 16 Noroeste 0 -- -- 36
2019-03-21 13:00:00 12.8 7 Este 14 Noroeste 0 -- -- 38
2019-03-21 12:00:00 12.4 4 Noroeste 13 Nordeste 0 -- -- 42
2019-03-21 11:00:00 10.2 6 Este 15 Este 0 -- -- 47
2019-03-21 10:00:00 6.8 8 Este 13 Nordeste 0 -- -- 54
2019-03-21 09:00:00 4.4 11 Nordeste 15 Nordeste 0 -- -- 61
2019-03-21 08:00:00 -3.3 6 Este 9 Este 0 -- -- 83
2019-03-21 07:00:00 -2.5 2 Este 13 Nordeste 0 -- -- 78
2019-03-21 06:00:00 -1.9 3 Este 13 Nordeste 0 -- -- 78
2019-03-21 05:00:00 -1.3 8 Nordeste 15 Norte 0 -- -- 78
2019-03-21 04:00:00 -0.7 7 Nordeste 15 Nordeste 0 -- -- 74
2019-03-21 03:00:00 0 6 Este 17 Nordeste 0 -- -- 73
2019-03-21 02:00:00 1.1 15 Norte 26 Norte 0 -- -- 69
2019-03-21 01:00:00 1.7 19 Norte 26 Nordeste 0 -- -- 67
2019-03-21 00:00:00 2.6 19 Nordeste 35 Norte 0 -- -- 64